Time;durP1;ratioP1;P1;durP2;ratioP2;P2;SDS_P1;SDS_P2;PMS_P1;PMS_P2;Temp;Humidity;BMP_temperature;BMP_pressure;BME280_temperature;BME280_humidity;BME280_pressure;Samples;Min_cycle;Max_cycle;Signal;HPM_P1;HPM_P2
2022/07/18 00:02:24;;;;;;;4.30;2.20;;;16.40;88.90;;;;;;5085414;28;20177;-86
2022/07/18 00:04:51;;;;;;;2.77;2.50;;;;;;;;;;5084660;28;20196;-86
2022/07/18 00:07:16;;;;;;;3.60;2.50;;;16.30;88.80;;;;;;5083004;28;20181;-86
2022/07/18 00:09:43;;;;;;;8.50;2.53;;;16.10;89.50;;;;;;5082597;28;20177;-86
2022/07/18 00:12:10;;;;;;;4.43;2.67;;;16.10;89.50;;;;;;5081684;28;20683;-87
2022/07/18 00:14:36;;;;;;;3.43;2.40;;;16.10;90.00;;;;;;5081913;28;20677;-87
2022/07/18 00:17:03;;;;;;;4.53;2.40;;;16.00;90.20;;;;;;5081248;28;20177;-87
2022/07/18 00:19:30;;;;;;;3.23;2.77;;;16.00;90.40;;;;;;5083341;28;20173;-87
2022/07/18 00:21:55;;;;;;;4.97;2.77;;;16.00;90.60;;;;;;5082990;28;20187;-87
2022/07/18 00:24:21;;;;;;;5.00;2.37;;;;;;;;;;5083518;28;20252;-86
2022/07/18 00:26:47;;;;;;;4.53;2.87;;;15.90;90.60;;;;;;5081450;28;20176;-87
2022/07/18 00:29:13;;;;;;;4.53;2.60;;;15.80;91.10;;;;;;5082064;28;20181;-87
2022/07/18 00:31:39;;;;;;;4.30;3.00;;;;;;;;;;5083064;28;20580;-87
2022/07/18 00:34:05;;;;;;;4.93;2.97;;;15.70;91.30;;;;;;5081380;28;20561;-87
2022/07/18 00:36:31;;;;;;;4.33;3.20;;;15.60;91.20;;;;;;5082276;28;20248;-87
2022/07/18 00:38:58;;;;;;;3.30;2.60;;;15.60;91.40;;;;;;5082059;28;20220;-87
2022/07/18 00:41:24;;;;;;;5.47;2.80;;;15.60;91.70;;;;;;5082379;28;20178;-86
2022/07/18 00:43:50;;;;;;;3.23;2.80;;;15.60;91.40;;;;;;5083107;28;20249;-87
2022/07/18 00:46:15;;;;;;;2.83;2.60;;;15.60;91.90;;;;;;5081810;28;20585;-87
2022/07/18 00:48:42;;;;;;;3.70;2.50;;;15.60;91.90;;;;;;5083607;28;20181;-87
2022/07/18 00:51:09;;;;;;;4.50;2.70;;;15.50;92.00;;;;;;5085309;28;20193;-87
2022/07/18 00:53:35;;;;;;;4.73;2.90;;;15.40;91.70;;;;;;5083085;28;20204;-87
2022/07/18 00:56:02;;;;;;;4.43;3.17;;;15.40;91.80;;;;;;5085196;28;20537;-87
2022/07/18 00:58:30;;;;;;;3.80;3.07;;;15.40;92.20;;;;;;5083596;28;20572;-87
2022/07/18 01:03:40;;;;;;;3.13;2.80;;;15.30;92.00;;;;;;5084627;28;20207;-87
2022/07/18 01:06:06;;;;;;;4.53;3.10;;;15.30;92.10;;;;;;5082613;28;20177;-87
2022/07/18 01:08:32;;;;;;;4.77;2.93;;;15.30;92.10;;;;;;5083465;28;20231;-87
2022/07/18 01:10:58;;;;;;;4.47;2.70;;;15.30;92.30;;;;;;5086451;28;20655;-87
2022/07/18 01:13:24;;;;;;;3.73;2.90;;;15.20;92.20;;;;;;5087219;28;20188;-87
2022/07/18 01:15:50;;;;;;;3.23;2.60;;;15.20;92.50;;;;;;5088855;28;20169;-87
2022/07/18 01:18:16;;;;;;;3.83;3.20;;;15.20;92.60;;;;;;5092645;28;20176;-86
2022/07/18 01:20:42;;;;;;;3.40;3.10;;;15.20;92.50;;;;;;5084196;28;20189;-87
2022/07/18 01:23:08;;;;;;;4.00;3.27;;;15.10;92.50;;;;;;5084280;28;20205;-86
2022/07/18 01:25:34;;;;;;;6.30;3.37;;;15.10;92.80;;;;;;5082158;28;20181;-87
2022/07/18 01:28:00;;;;;;;3.30;3.00;;;15.10;92.90;;;;;;5081719;28;20177;-87
2022/07/18 01:30:26;;;;;;;3.27;2.97;;;15.10;92.80;;;;;;5081709;28;20205;-87
2022/07/18 01:33:00;;;;;;;4.10;3.30;;;15.10;92.50;;;;;;5080382;28;20177;-87
2022/07/18 01:35:27;;;;;;;5.17;2.77;;;15.10;92.70;;;;;;5081241;28;20175;-86
2022/07/18 01:37:55;;;;;;;3.80;2.90;;;15.10;92.80;;;;;;5078325;28;20272;-87
2022/07/18 01:40:21;;;;;;;3.03;2.73;;;15.10;93.00;;;;;;5077824;28;20649;-86
2022/07/18 01:42:46;;;;;;;5.63;3.50;;;15.10;93.00;;;;;;5077283;28;20182;-87
2022/07/18 01:45:12;;;;;;;4.53;3.40;;;15.00;92.50;;;;;;5077323;28;20202;-87
2022/07/18 01:47:38;;;;;;;5.73;2.87;;;15.00;92.90;;;;;;5086979;28;20237;-87
2022/07/18 01:50:05;;;;;;;4.73;3.40;;;15.00;93.00;;;;;;5085211;28;20204;-87
2022/07/18 01:52:31;;;;;;;5.53;3.40;;;14.90;92.90;;;;;;5085595;28;20207;-87
2022/07/18 01:54:57;;;;;;;3.67;2.90;;;15.00;93.40;;;;;;5085802;28;20192;-87
2022/07/18 01:57:23;;;;;;;3.80;3.33;;;14.90;93.30;;;;;;5086266;28;20177;-87
2022/07/18 01:59:49;;;;;;;4.00;3.03;;;14.90;93.40;;;;;;5084637;28;20177;-87
2022/07/18 02:02:15;;;;;;;4.00;3.00;;;14.90;93.70;;;;;;5084971;28;20180;-87
2022/07/18 02:05:00;;;;;;;4.03;3.07;;;14.90;93.80;;;;;;5086959;28;20197;-87
2022/07/18 02:07:37;;;;;;;4.50;3.30;;;14.80;94.00;;;;;;5087374;28;20260;-87
2022/07/18 02:10:18;;;;;;;3.93;3.43;;;14.80;94.30;;;;;;5085678;28;20589;-87
2022/07/18 02:12:43;;;;;;;4.00;3.60;;;14.70;94.50;;;;;;5086338;28;20196;-87
2022/07/18 02:15:12;;;;;;;4.63;3.37;;;14.70;94.70;;;;;;5086757;28;20192;-87
2022/07/18 02:17:38;;;;;;;7.37;3.80;;;14.70;95.10;;;;;;5086409;28;20169;-87
2022/07/18 02:20:06;;;;;;;5.30;3.73;;;14.60;95.30;;;;;;5086121;28;20177;-87
2022/07/18 02:22:32;;;;;;;3.63;3.20;;;14.60;95.60;;;;;;5085787;28;20181;-87
2022/07/18 02:24:57;;;;;;;4.60;3.37;;;14.60;95.90;;;;;;5088638;28;20193;-87
2022/07/18 02:27:23;;;;;;;4.07;3.47;;;14.60;96.10;;;;;;5090881;28;20173;-87
2022/07/18 02:29:49;;;;;;;6.23;3.37;;;14.60;96.10;;;;;;5085752;28;20180;-87
2022/07/18 02:32:15;;;;;;;4.10;3.43;;;14.50;96.40;;;;;;5086251;28;20185;-87
2022/07/18 02:34:40;;;;;;;3.93;3.50;;;14.50;96.40;;;;;;5086635;28;20227;-87
2022/07/18 02:37:06;;;;;;;4.90;3.60;;;14.50;96.90;;;;;;5086238;28;20177;-86
2022/07/18 02:39:32;;;;;;;5.63;3.50;;;14.50;97.10;;;;;;5085395;28;20189;-87
2022/07/18 02:41:58;;;;;;;5.17;3.57;;;14.40;97.30;;;;;;5085533;28;20179;-87
2022/07/18 02:44:29;;;;;;;3.83;3.40;;;14.40;97.30;;;;;;5086127;28;20197;-87
2022/07/18 02:46:54;;;;;;;5.97;3.77;;;14.30;97.70;;;;;;5085952;28;20175;-87
2022/07/18 02:49:29;;;;;;;4.07;3.47;;;14.30;97.90;;;;;;5085496;28;20176;-87
2022/07/18 02:52:00;;;;;;;5.07;3.87;;;14.30;98.10;;;;;;5088259;28;20194;-87
2022/07/18 02:54:27;;;;;;;3.63;3.33;;;14.30;98.40;;;;;;5089073;28;20255;-87
2022/07/18 02:56:53;;;;;;;4.10;3.70;;;14.30;98.30;;;;;;5084501;28;20691;-87
2022/07/18 02:59:20;;;;;;;5.77;3.50;;;14.30;98.50;;;;;;5083275;28;20646;-86
2022/07/18 03:01:46;;;;;;;4.67;3.00;;;14.30;98.60;;;;;;5083726;28;20184;-87
2022/07/18 03:04:12;;;;;;;4.90;3.53;;;14.30;98.60;;;;;;5083412;28;20196;-86
2022/07/18 03:06:37;;;;;;;4.63;3.20;;;14.30;98.70;;;;;;5083035;28;20200;-87
2022/07/18 03:09:04;;;;;;;5.43;3.23;;;14.30;98.80;;;;;;5082971;28;20195;-87
2022/07/18 03:11:30;;;;;;;3.80;3.40;;;14.30;99.10;;;;;;5082610;28;20201;-87
2022/07/18 03:13:55;;;;;;;5.17;3.53;;;14.30;99.20;;;;;;5082532;28;20245;-86
2022/07/18 03:16:21;;;;;;;6.10;3.40;;;14.30;99.40;;;;;;5083787;28;20169;-87
2022/07/18 03:18:47;;;;;;;5.07;3.50;;;14.20;99.40;;;;;;5081301;28;20183;-87
2022/07/18 03:21:13;;;;;;;5.30;3.57;;;14.20;99.80;;;;;;5084057;28;20179;-86
2022/07/18 03:23:38;;;;;;;4.53;3.57;;;14.20;99.90;;;;;;5083966;28;20193;-87
2022/07/18 03:26:04;;;;;;;4.83;3.30;;;14.10;99.90;;;;;;5081981;28;20177;-87
2022/07/18 03:28:30;;;;;;;8.60;4.40;;;14.10;99.90;;;;;;5081621;28;20177;-86
2022/07/18 03:30:58;;;;;;;3.97;3.57;;;14.10;99.90;;;;;;5082316;28;20525;-87
2022/07/18 03:33:25;;;;;;;4.27;3.80;;;14.10;99.90;;;;;;5079466;28;20239;-86
2022/07/18 03:35:50;;;;;;;6.03;3.97;;;14.10;99.90;;;;;;5080263;28;20237;-87
2022/07/18 03:38:16;;;;;;;4.50;4.10;;;14.10;99.90;;;;;;5079266;28;20603;-86
2022/07/18 03:40:42;;;;;;;7.90;4.17;;;14.10;99.90;;;;;;5077530;28;20187;-87
2022/07/18 03:43:07;;;;;;;5.97;3.70;;;14.10;99.90;;;;;;5076236;28;20177;-86
2022/07/18 03:45:33;;;;;;;5.67;3.93;;;14.10;99.90;;;;;;5075585;28;20272;-87
2022/07/18 03:47:59;;;;;;;7.30;4.33;;;14.00;99.90;;;;;;5073709;28;20294;-87
2022/07/18 03:50:27;;;;;;;8.17;3.67;;;;;;;;;;5077208;28;20251;-87
2022/07/18 03:52:53;;;;;;;3.93;3.53;;;13.90;99.90;;;;;;5085986;28;20204;-87
2022/07/18 03:55:18;;;;;;;7.20;4.10;;;13.90;99.90;;;;;;5086171;28;20635;-88
2022/07/18 03:57:44;;;;;;;6.80;4.00;;;13.90;99.90;;;;;;5085567;28;20203;-88
2022/07/18 04:00:11;;;;;;;6.30;3.90;;;13.90;99.90;;;;;;5086450;28;20183;-87
2022/07/18 04:02:41;;;;;;;6.77;4.33;;;14.00;99.90;;;;;;5085689;28;20165;-87
2022/07/18 04:05:07;;;;;;;7.80;3.47;;;13.90;99.90;;;;;;5085211;28;20216;-87
2022/07/18 04:07:33;;;;;;;4.73;3.80;;;14.00;99.90;;;;;;5085777;28;20177;-87
2022/07/18 04:09:59;;;;;;;5.63;3.87;;;14.00;99.90;;;;;;5086140;28;20177;-87
2022/07/18 04:12:25;;;;;;;4.33;3.80;;;14.00;99.90;;;;;;5089072;28;20200;-87
2022/07/18 04:14:50;;;;;;;4.67;3.70;;;14.00;99.90;;;;;;5097190;28;20224;-87
2022/07/18 04:17:16;;;;;;;5.27;3.63;;;14.10;99.90;;;;;;5092374;28;20181;-87
2022/07/18 04:19:42;;;;;;;5.33;3.87;;;;;;;;;;5084971;28;20187;-87
2022/07/18 04:22:08;;;;;;;5.20;4.00;;;14.10;99.90;;;;;;5084374;28;20208;-87
2022/07/18 04:24:34;;;;;;;5.77;3.90;;;14.20;99.90;;;;;;5082648;28;20201;-87
2022/07/18 04:26:59;;;;;;;4.40;3.40;;;14.30;99.90;;;;;;5084344;28;20199;-87
2022/07/18 04:29:25;;;;;;;3.77;3.47;;;14.30;99.90;;;;;;5084679;28;20658;-87
2022/07/18 04:31:51;;;;;;;5.80;3.60;;;14.30;99.90;;;;;;5083962;28;20294;-87
2022/07/18 04:34:17;;;;;;;8.43;3.80;;;14.40;99.90;;;;;;5082097;28;20250;-87
2022/07/18 04:36:43;;;;;;;5.07;3.60;;;14.40;99.90;;;;;;5082228;28;20642;-87
2022/07/18 04:39:09;;;;;;;4.00;3.60;;;14.40;99.90;;;;;;5082040;28;20192;-87
2022/07/18 04:41:34;;;;;;;4.77;4.20;;;14.50;99.90;;;;;;5082882;28;20189;-87
2022/07/18 04:44:00;;;;;;;4.17;3.77;;;14.50;99.90;;;;;;5082262;28;20201;-87
2022/07/18 04:46:26;;;;;;;6.37;4.10;;;14.60;99.90;;;;;;5086439;28;20216;-87
2022/07/18 04:48:51;;;;;;;4.20;3.80;;;14.60;99.90;;;;;;5085037;28;20221;-86
2022/07/18 04:51:17;;;;;;;5.30;3.63;;;14.70;99.90;;;;;;5083038;28;20215;-86
2022/07/18 04:53:43;;;;;;;5.40;4.03;;;14.70;99.90;;;;;;5083458;28;20283;-86
2022/07/18 04:56:08;;;;;;;5.40;4.17;;;14.80;99.90;;;;;;5082797;28;20174;-87
2022/07/18 04:58:34;;;;;;;4.93;3.70;;;14.90;99.90;;;;;;5083939;28;20173;-87
2022/07/18 05:01:00;;;;;;;3.80;3.47;;;14.90;99.90;;;;;;5084940;28;20177;-87
2022/07/18 05:03:25;;;;;;;4.40;3.67;;;15.00;99.90;;;;;;5083578;28;20201;-87
2022/07/18 05:05:51;;;;;;;6.33;3.80;;;15.10;99.90;;;;;;5085517;28;20181;-86
2022/07/18 05:08:18;;;;;;;4.80;3.50;;;15.10;99.90;;;;;;5083820;28;20184;-87
2022/07/18 05:10:44;;;;;;;5.77;4.00;;;15.20;99.90;;;;;;5082587;28;20201;-86
2022/07/18 05:13:09;;;;;;;3.93;3.47;;;15.40;99.90;;;;;;5081945;28;20184;-85
2022/07/18 05:15:35;;;;;;;8.40;3.93;;;15.40;99.90;;;;;;5082602;28;20169;-86
2022/07/18 05:18:01;;;;;;;7.33;3.97;;;15.40;99.90;;;;;;5081331;28;20180;-86
2022/07/18 05:20:27;;;;;;;4.13;3.73;;;;;;;;;;5081613;28;20184;-84
2022/07/18 05:22:53;;;;;;;5.13;3.67;;;15.60;99.90;;;;;;5082959;28;20181;-89
2022/07/18 05:25:22;;;;;;;7.07;3.87;;;15.70;99.90;;;;;;5081128;28;20189;-83
2022/07/18 05:27:49;;;;;;;7.30;3.87;;;15.70;99.90;;;;;;5081343;28;20626;-85
2022/07/18 05:30:15;;;;;;;4.20;3.60;;;15.80;99.90;;;;;;5080945;28;20177;-86
2022/07/18 05:32:43;;;;;;;4.90;3.30;;;15.90;99.90;;;;;;5082515;28;20535;-86
2022/07/18 05:35:11;;;;;;;5.97;3.63;;;15.90;99.90;;;;;;5082345;28;20190;-87
2022/07/18 05:37:37;;;;;;;4.40;3.60;;;16.00;99.90;;;;;;5080872;28;20207;-87
2022/07/18 05:40:04;;;;;;;7.17;3.90;;;16.10;99.90;;;;;;5083490;28;20153;-87
2022/07/18 05:42:31;;;;;;;7.00;3.87;;;16.20;99.90;;;;;;5081709;28;20279;-88
2022/07/18 05:44:56;;;;;;;5.13;4.00;;;16.30;99.90;;;;;;5082577;28;20303;-87
2022/07/18 05:47:22;;;;;;;4.13;3.73;;;16.40;99.90;;;;;;5080677;28;20220;-87
2022/07/18 05:49:47;;;;;;;4.83;3.27;;;16.50;99.90;;;;;;5079694;28;20542;-86
2022/07/18 05:52:13;;;;;;;6.03;3.53;;;16.50;99.90;;;;;;5078004;28;20202;-86
2022/07/18 05:54:39;;;;;;;6.53;3.10;;;16.60;99.90;;;;;;5077967;28;20263;-87
2022/07/18 05:57:05;;;;;;;5.13;3.50;;;16.80;99.90;;;;;;5080329;28;20179;-85
2022/07/18 05:59:31;;;;;;;6.63;3.30;;;16.90;99.90;;;;;;5084602;28;20548;-85
2022/07/18 06:01:57;;;;;;;3.37;3.00;;;17.00;99.90;;;;;;5084220;28;20247;-85
2022/07/18 06:04:22;;;;;;;7.57;3.53;;;17.10;99.90;;;;;;5085260;28;20233;-86
2022/07/18 06:06:49;;;;;;;4.83;3.53;;;17.20;99.90;;;;;;5084640;28;20178;-86
2022/07/18 06:09:16;;;;;;;4.17;3.30;;;17.30;99.90;;;;;;5084867;28;20544;-85
2022/07/18 06:11:42;;;;;;;4.33;3.53;;;17.40;99.90;;;;;;5082681;28;20204;-87
2022/07/18 06:14:07;;;;;;;3.43;2.90;;;17.50;99.90;;;;;;5082503;28;20222;-85
2022/07/18 06:16:33;;;;;;;9.27;3.20;;;17.60;99.90;;;;;;5083141;28;20187;-86
2022/07/18 06:18:59;;;;;;;3.90;2.83;;;17.70;99.90;;;;;;5085390;28;20170;-86
2022/07/18 06:21:25;;;;;;;4.93;3.03;;;17.70;99.90;;;;;;5084299;28;20197;-86
2022/07/18 06:23:51;;;;;;;4.67;3.10;;;17.90;99.90;;;;;;5083672;28;20206;-86
2022/07/18 06:26:17;;;;;;;7.37;3.30;;;18.00;99.90;;;;;;5082406;28;20226;-86
2022/07/18 06:28:43;;;;;;;6.40;3.10;;;18.10;99.90;;;;;;5084298;28;20174;-86
2022/07/18 06:31:11;;;;;;;4.37;2.87;;;18.20;99.90;;;;;;5081334;28;20205;-86
2022/07/18 06:33:37;;;;;;;4.87;2.67;;;18.30;99.90;;;;;;5088038;28;20203;-86
2022/07/18 06:36:05;;;;;;;2.90;2.63;;;18.50;99.90;;;;;;5079320;28;20178;-86
2022/07/18 06:38:31;;;;;;;4.30;2.70;;;18.60;99.90;;;;;;5080626;28;20197;-87
2022/07/18 06:40:57;;;;;;;6.53;3.20;;;18.80;99.90;;;;;;5083106;28;20216;-87
2022/07/18 06:43:22;;;;;;;3.27;2.60;;;18.90;99.90;;;;;;5079772;28;20232;-86
2022/07/18 06:45:48;;;;;;;3.07;2.77;;;19.00;99.90;;;;;;5080289;28;20270;-86
2022/07/18 06:48:15;;;;;;;3.27;2.73;;;19.10;99.90;;;;;;5079910;28;20206;-86
2022/07/18 06:50:42;;;;;;;3.57;2.80;;;19.30;99.90;;;;;;5081995;28;20201;-86
2022/07/18 06:53:07;;;;;;;5.90;3.00;;;19.40;99.90;;;;;;5080836;28;20179;-86
2022/07/18 06:55:33;;;;;;;5.63;2.47;;;19.40;99.90;;;;;;5082764;28;20213;-87
2022/07/18 06:57:59;;;;;;;3.40;3.10;;;19.50;99.90;;;;;;5080721;28;20179;-86
2022/07/18 07:00:26;;;;;;;3.77;2.43;;;19.60;99.90;;;;;;5081002;28;20519;-87
2022/07/18 07:02:52;;;;;;;4.10;2.90;;;19.70;99.90;;;;;;5078458;28;20702;-82
2022/07/18 07:05:20;;;;;;;3.03;2.73;;;19.80;99.90;;;;;;5076322;28;20204;-82
2022/07/18 07:07:46;;;;;;;3.47;2.70;;;19.90;99.90;;;;;;5077437;28;20553;-83
2022/07/18 07:10:12;;;;;;;3.77;2.50;;;20.00;99.60;;;;;;5077009;28;20180;-82
2022/07/18 07:12:40;;;;;;;3.57;2.90;;;20.10;99.90;;;;;;5071220;28;20184;-82
2022/07/18 07:15:06;;;;;;;3.90;2.97;;;20.30;99.90;;;;;;5062911;28;20225;-83
2022/07/18 07:17:32;;;;;;;3.50;2.63;;;20.40;99.80;;;;;;5057319;28;20178;-82
2022/07/18 07:19:57;;;;;;;3.20;2.90;;;20.60;99.20;;;;;;5065540;28;20189;-83
2022/07/18 07:22:23;;;;;;;7.80;2.90;;;20.70;98.00;;;;;;5056185;28;20181;-82
2022/07/18 07:24:49;;;;;;;3.07;2.47;;;20.90;99.90;;;;;;5059553;28;20251;-82
2022/07/18 07:27:15;;;;;;;2.70;2.40;;;21.00;98.10;;;;;;5059330;28;20545;-82
2022/07/18 07:29:41;;;;;;;7.13;2.67;;;21.20;96.60;;;;;;5076297;28;20189;-83
2022/07/18 07:32:06;;;;;;;4.93;2.20;;;21.30;96.00;;;;;;5076200;28;20224;-83
2022/07/18 07:34:32;;;;;;;4.97;2.70;;;21.40;95.50;;;;;;5076067;28;20200;-83
2022/07/18 07:36:58;;;;;;;7.60;2.73;;;21.70;96.40;;;;;;5076456;28;20592;-83
2022/07/18 07:39:24;;;;;;;3.63;2.17;;;22.00;95.80;;;;;;5077649;28;20185;-83
2022/07/18 07:41:50;;;;;;;3.80;2.10;;;22.30;95.40;;;;;;5078182;28;20183;-83
2022/07/18 07:44:16;;;;;;;3.13;2.13;;;22.60;94.30;;;;;;5077314;28;20654;-82
2022/07/18 07:46:42;;;;;;;4.37;2.30;;;22.70;94.40;;;;;;5056934;28;20193;-83
2022/07/18 07:49:07;;;;;;;2.63;2.33;;;22.90;94.40;;;;;;5072173;28;20192;-83
2022/07/18 07:51:33;;;;;;;7.63;2.30;;;23.00;94.50;;;;;;5070811;28;20291;-82
2022/07/18 07:53:59;;;;;;;5.90;2.93;;;23.00;92.90;;;;;;5072148;28;20274;-83
2022/07/18 07:56:24;;;;;;;5.63;2.57;;;23.10;95.10;;;;;;5073935;28;20264;-82
2022/07/18 07:58:50;;;;;;;2.87;2.20;;;23.30;95.30;;;;;;5066468;28;20628;-83
2022/07/18 08:01:19;;;;;;;2.90;2.10;;;23.40;94.00;;;;;;5064763;28;20662;-83
2022/07/18 08:03:48;;;;;;;2.20;1.93;;;23.40;94.00;;;;;;5075839;28;20206;-83
2022/07/18 08:06:14;;;;;;;3.33;2.30;;;23.60;93.20;;;;;;5071651;28;20192;-84
2022/07/18 08:08:39;;;;;;;5.53;2.10;;;23.70;93.90;;;;;;5063921;28;20204;-83
2022/07/18 08:11:06;;;;;;;6.43;2.17;;;23.80;92.90;;;;;;5055366;28;20204;-83
2022/07/18 08:13:31;;;;;;;3.50;2.33;;;23.90;90.20;;;;;;5072171;28;20234;-83
2022/07/18 08:15:57;;;;;;;4.07;2.33;;;24.00;92.30;;;;;;5058187;28;20183;-83
2022/07/18 08:18:23;;;;;;;5.10;2.30;;;24.00;91.20;;;;;;5059432;28;20634;-85
2022/07/18 08:20:48;;;;;;;3.77;2.23;;;24.20;90.40;;;;;;5064979;28;20180;-86
2022/07/18 08:23:16;;;;;;;6.57;2.43;;;;;;;;;;5070852;28;20218;-86
2022/07/18 08:25:45;;;;;;;3.17;1.77;;;24.40;92.30;;;;;;5079943;28;20176;-85
2022/07/18 08:28:11;;;;;;;2.97;1.87;;;24.60;88.90;;;;;;5080320;28;20175;-84
2022/07/18 08:30:38;;;;;;;4.60;2.10;;;24.80;83.40;;;;;;5062296;28;20207;-84
2022/07/18 08:33:04;;;;;;;2.43;1.87;;;24.90;84.40;;;;;;5061773;28;20269;-85
2022/07/18 08:35:34;;;;;;;3.57;2.10;;;25.10;87.00;;;;;;5088333;28;20179;-85
2022/07/18 08:38:01;;;;;;;2.67;1.93;;;25.30;89.70;;;;;;5081706;28;20189;-84
2022/07/18 08:40:27;;;;;;;2.60;1.80;;;25.40;84.80;;;;;;5082958;28;20202;-86
2022/07/18 08:42:55;;;;;;;5.23;2.73;;;25.50;82.40;;;;;;5081832;28;20181;-85
2022/07/18 08:45:23;;;;;;;2.03;1.50;;;25.70;77.20;;;;;;5084142;28;20177;-86
2022/07/18 08:47:51;;;;;;;6.30;1.87;;;25.80;81.30;;;;;;5083583;28;20211;-85
2022/07/18 08:50:17;;;;;;;2.00;1.80;;;25.90;79.00;;;;;;5092109;28;20173;-84
2022/07/18 08:52:44;;;;;;;2.77;1.70;;;26.00;73.10;;;;;;5084725;28;20197;-84
2022/07/18 08:55:10;;;;;;;1.97;1.70;;;26.20;78.70;;;;;;5081306;28;20230;-84
2022/07/18 08:57:36;;;;;;;1.97;1.70;;;26.50;75.20;;;;;;5081317;28;20234;-84
2022/07/18 09:00:04;;;;;;;3.37;2.20;;;26.90;68.10;;;;;;5082483;28;20647;-87
2022/07/18 09:02:31;;;;;;;3.37;1.80;;;26.90;68.30;;;;;;5081710;28;20185;-87
2022/07/18 09:04:57;;;;;;;2.03;1.40;;;;;;;;;;5072843;28;20235;-87
2022/07/18 09:07:31;;;;;;;3.93;1.60;;;27.30;69.50;;;;;;5077257;28;20304;-85
2022/07/18 09:09:59;;;;;;;4.50;1.47;;;27.40;67.60;;;;;;5063866;28;20304;-85
2022/07/18 09:12:27;;;;;;;3.90;1.60;;;27.90;67.40;;;;;;5063695;28;20216;-86
2022/07/18 09:14:53;;;;;;;3.97;1.73;;;28.10;61.50;;;;;;5062909;28;20195;-86
2022/07/18 09:17:28;;;;;;;4.80;1.50;;;28.10;62.20;;;;;;5080032;28;20294;-86
2022/07/18 09:20:00;;;;;;;5.30;1.50;;;28.20;70.30;;;;;;5077303;28;20177;-86
2022/07/18 09:22:28;;;;;;;2.37;1.40;;;28.40;55.80;;;;;;5071092;28;20215;-86
2022/07/18 09:25:02;;;;;;;3.07;1.60;;;28.30;61.50;;;;;;5085943;28;20209;-85
2022/07/18 09:27:28;;;;;;;1.30;1.10;;;;;;;;;;5073547;28;20186;-85
2022/07/18 09:30:24;;;;;;;1.57;1.23;;;28.20;58.60;;;;;;5061775;28;20189;-85
2022/07/18 09:33:03;;;;;;;1.97;1.30;;;28.30;63.30;;;;;;5075345;28;20267;-86
2022/07/18 09:35:33;;;;;;;1.50;1.30;;;28.30;58.10;;;;;;5068062;28;20189;-85
2022/07/18 09:37:59;;;;;;;2.83;1.63;;;;;;;;;;5073866;28;20588;-85
2022/07/18 09:40:47;;;;;;;3.20;1.33;;;28.70;66.60;;;;;;5082792;28;20192;-86
2022/07/18 09:43:16;;;;;;;2.40;1.50;;;28.80;59.80;;;;;;5073620;28;20297;-82
2022/07/18 09:45:47;;;;;;;2.40;1.40;;;28.90;63.00;;;;;;5080707;28;20203;-82
2022/07/18 09:48:24;;;;;;;3.27;1.40;;;28.90;64.30;;;;;;5080983;28;20240;-85
2022/07/18 09:50:51;;;;;;;3.63;1.40;;;;;;;;;;5075503;28;20201;-85
2022/07/18 09:53:23;;;;;;;5.83;1.53;;;29.30;59.40;;;;;;5060908;28;20810;-84
2022/07/18 09:55:52;;;;;;;5.17;1.60;;;29.30;61.50;;;;;;5067095;28;20239;-84
2022/07/18 09:58:25;;;;;;;3.47;1.50;;;29.40;63.70;;;;;;5069712;28;20181;-84
2022/07/18 10:00:52;;;;;;;4.20;1.70;;;29.50;60.60;;;;;;5067042;28;20276;-85
2022/07/18 10:03:20;;;;;;;2.73;1.40;;;29.80;59.10;;;;;;5077918;28;20201;-85
2022/07/18 10:05:47;;;;;;;6.63;1.50;;;29.80;59.60;;;;;;5071802;28;20276;-85
2022/07/18 10:08:18;;;;;;;2.47;1.40;;;29.80;57.70;;;;;;5082516;28;20191;-86
2022/07/18 10:10:46;;;;;;;5.93;1.70;;;29.90;59.10;;;;;;5080479;28;20212;-81
2022/07/18 10:13:13;;;;;;;2.87;1.40;;;30.20;57.30;;;;;;5080783;28;20180;-83
2022/07/18 10:15:40;;;;;;;1.03;1.00;;;30.30;57.50;;;;;;5080644;28;20219;-83
2022/07/18 10:18:09;;;;;;;1.40;1.30;;;30.40;63.10;;;;;;5079698;28;20187;-82
2022/07/18 10:20:43;;;;;;;4.23;1.13;;;30.40;56.30;;;;;;5078856;28;20181;-83
2022/07/18 10:23:26;;;;;;;1.87;1.10;;;30.50;58.30;;;;;;5065529;28;20188;-81
2022/07/18 10:26:19;;;;;;;2.97;1.07;;;30.50;58.80;;;;;;5059955;28;20184;-83
2022/07/18 10:28:56;;;;;;;2.43;1.30;;;30.80;60.00;;;;;;5060792;28;20212;-81
2022/07/18 10:31:33;;;;;;;2.87;1.13;;;30.90;56.70;;;;;;5060584;28;20562;-82
2022/07/18 10:34:08;;;;;;;2.10;1.07;;;31.20;53.80;;;;;;5070089;28;20194;-81
2022/07/18 10:36:39;;;;;;;3.53;1.40;;;31.50;63.40;;;;;;5074347;28;20634;-84
2022/07/18 10:39:07;;;;;;;1.53;1.20;;;31.70;56.20;;;;;;5079274;28;20197;-84
2022/07/18 10:42:01;;;;;;;3.00;1.50;;;31.80;51.90;;;;;;5065027;28;20194;-84
2022/07/18 10:44:29;;;;;;;1.57;1.20;;;31.70;56.00;;;;;;5059324;28;20206;-84
2022/07/18 10:47:23;;;;;;;1.50;1.00;;;31.60;52.60;;;;;;5064420;28;20186;-85
2022/07/18 10:49:52;;;;;;;1.90;1.43;;;31.50;51.40;;;;;;5085889;28;20549;-87
2022/07/18 10:52:30;;;;;;;1.67;1.20;;;31.50;56.30;;;;;;5080396;28;20233;-86
2022/07/18 10:55:04;;;;;;;1.93;1.13;;;31.70;58.80;;;;;;5065553;28;20202;-86
2022/07/18 10:57:31;;;;;;;2.40;1.40;;;31.90;52.00;;;;;;5078870;28;20184;-86
2022/07/18 11:00:08;;;;;;;4.83;1.30;;;32.10;57.20;;;;;;5082938;28;20194;-85
2022/07/18 11:02:42;;;;;;;3.50;1.03;;;32.40;54.20;;;;;;5077342;28;20253;-87
2022/07/18 11:05:23;;;;;;;1.10;0.97;;;32.30;52.90;;;;;;5082301;28;20560;-86
2022/07/18 11:07:58;;;;;;;1.73;0.93;;;32.40;57.30;;;;;;5077184;28;20189;-84
2022/07/18 11:10:50;;;;;;;1.53;1.10;;;32.50;52.70;;;;;;5076941;28;20180;-86
2022/07/18 11:13:25;;;;;;;1.57;1.10;;;32.60;52.10;;;;;;5076278;28;20212;-85
2022/07/18 11:16:06;;;;;;;1.47;1.10;;;32.60;52.80;;;;;;5084202;28;20184;-86
2022/07/18 11:18:44;;;;;;;1.10;0.90;;;32.70;49.90;;;;;;5083231;28;20592;-86
2022/07/18 11:21:27;;;;;;;1.30;1.10;;;32.80;51.20;;;;;;5084444;28;20180;-86
2022/07/18 11:24:04;;;;;;;1.57;1.00;;;33.00;52.60;;;;;;5082410;28;20255;-86
2022/07/18 11:26:30;;;;;;;1.63;1.03;;;33.20;52.40;;;;;;5084912;28;20207;-85
2022/07/18 11:29:08;;;;;;;2.20;1.00;;;33.10;47.10;;;;;;5084857;28;20174;-85
2022/07/18 11:31:46;;;;;;;4.10;0.90;;;33.10;50.20;;;;;;5085150;28;20200;-86
2022/07/18 11:34:12;;;;;;;1.00;0.90;;;33.20;53.60;;;;;;5083910;28;20214;-86
2022/07/18 11:36:41;;;;;;;3.57;1.10;;;33.50;50.20;;;;;;5082368;28;20182;-86
2022/07/18 11:39:07;;;;;;;1.07;0.97;;;33.50;50.00;;;;;;5082146;28;20202;-86
2022/07/18 11:41:32;;;;;;;1.27;1.00;;;33.70;50.20;;;;;;5081676;28;20725;-86
2022/07/18 11:43:58;;;;;;;2.30;1.17;;;33.60;44.50;;;;;;5081359;28;20225;-86
2022/07/18 11:46:26;;;;;;;0.80;0.80;;;33.50;45.40;;;;;;5079796;28;20273;-85
2022/07/18 11:49:01;;;;;;;2.13;1.20;;;33.40;52.40;;;;;;5079405;28;20183;-87
2022/07/18 11:51:37;;;;;;;1.07;0.97;;;33.30;47.40;;;;;;5078184;28;20182;-86
2022/07/18 11:54:03;;;;;;;3.20;0.90;;;;;;;;;;5079534;28;20287;-85
2022/07/18 11:56:29;;;;;;;3.10;1.40;;;;;;;;;;5076228;28;20197;-84
2022/07/18 11:58:57;;;;;;;1.20;1.10;;;33.70;45.80;;;;;;5063657;28;20581;-85
2022/07/18 12:01:33;;;;;;;1.10;1.00;;;33.50;52.50;;;;;;5074514;28;20205;-86
2022/07/18 12:03:59;;;;;;;3.60;1.27;;;;;;;;;;5070980;28;20211;-85
2022/07/18 12:06:27;;;;;;;2.20;1.10;;;33.70;48.30;;;;;;5070923;28;20255;-86
2022/07/18 12:09:03;;;;;;;2.77;1.23;;;33.70;46.60;;;;;;5073883;28;20649;-85
2022/07/18 12:11:34;;;;;;;1.57;1.00;;;33.90;53.30;;;;;;5081457;28;20173;-87
2022/07/18 12:14:14;;;;;;;1.50;1.20;;;34.00;47.90;;;;;;5080786;28;20275;-85
2022/07/18 12:16:48;;;;;;;1.40;1.17;;;34.10;49.20;;;;;;5080543;28;20236;-84
2022/07/18 12:19:26;;;;;;;1.70;1.03;;;34.20;50.10;;;;;;5083074;28;20203;-85
2022/07/18 12:22:03;;;;;;;1.23;1.00;;;34.40;51.20;;;;;;5083872;28;20240;-84
2022/07/18 12:24:29;;;;;;;3.23;1.20;;;34.50;50.60;;;;;;5084583;28;20215;-84
2022/07/18 12:27:20;;;;;;;4.77;1.50;;;34.50;45.90;;;;;;5069406;28;20185;-81
2022/07/18 12:30:12;;;;;;;1.20;1.10;;;34.50;49.10;;;;;;5067218;28;20189;-83
2022/07/18 12:32:55;;;;;;;1.20;1.10;;;34.50;51.60;;;;;;5060950;28;20184;-83
2022/07/18 12:35:35;;;;;;;7.57;2.40;;;34.50;43.20;;;;;;5063496;28;20177;-82
2022/07/18 12:38:11;;;;;;;2.10;1.40;;;34.40;46.60;;;;;;5063161;28;20214;-84
2022/07/18 12:40:49;;;;;;;1.83;1.50;;;34.60;50.70;;;;;;5065085;28;20224;-85
2022/07/18 12:43:28;;;;;;;1.27;1.17;;;34.80;51.50;;;;;;5066231;28;20210;-84
2022/07/18 12:45:56;;;;;;;1.27;1.17;;;34.80;51.00;;;;;;5065351;28;20171;-84
2022/07/18 12:48:22;;;;;;;3.47;1.53;;;34.80;51.20;;;;;;5065350;28;20182;-84
2022/07/18 12:51:00;;;;;;;6.13;1.40;;;34.90;47.60;;;;;;5067906;28;20184;-86
2022/07/18 12:53:28;;;;;;;1.83;1.20;;;35.10;46.50;;;;;;5081832;28;20205;-86
2022/07/18 12:55:54;;;;;;;2.53;1.50;;;35.20;46.60;;;;;;5081422;28;20223;-85
2022/07/18 12:58:20;;;;;;;2.53;1.50;;;35.30;49.50;;;;;;5079005;28;20189;-85
2022/07/18 13:00:47;;;;;;;2.60;1.40;;;;;;;;;;5078809;28;20193;-85
2022/07/18 13:03:13;;;;;;;1.97;1.40;;;35.30;46.60;;;;;;5078466;28;20184;-85